Shinei Maru — JM6456 — position and weather

sailwx.info

Track history (hours):
 
Tides and Currents Weather Stations Pressure Air Temp Water Temp Dewpoint Dewpoint Depression Visibility Wind Speed Wind Dir Waves Ship Positions

Shinei Maru

Last reported at 2018-Jun-22 02:16 UTC. Time now 2018-Jun-22 05:32 UTC.
Position N 34°37' E 135°25'.

Length 41 m.

Type: Tanker. MMSI: 431008799.

Date/timePositionNaut miles runAvg speedWind from/ knotsBaromVisibWave heightAir tempDewpointWater temp
2018-Jun-22 02:16N 34°37' E 135°25'2 0.6
2018-Jun-21 22:13N 34°35' E 135°25'2 8.2
2018-Jun-21 21:59N 34°36' E 135°24'5 9.1
2018-Jun-21 21:26N 34°40' E 135°19'4 8.7
2018-Jun-21 21:00N 34°41' E 135°15'2 4.2
2018-Jun-21 20:25N 34°41' E 135°12'0 0.6
2018-Jun-21 20:00N 34°41' E 135°12'4 7.6
2018-Jun-21 19:29N 34°41' E 135°17'5 9.3
2018-Jun-21 18:58N 34°40' E 135°22'4 0.3
2018-Jun-21 06:03N 34°39' E 135°27'2 8.4
2018-Jun-21 05:52N 34°37' E 135°26'2 0.9
2018-Jun-21 03:56N 34°36' E 135°24'4 9.3
2018-Jun-21 03:30N 34°39' E 135°21'5 9.2
2018-Jun-21 03:00N 34°41' E 135°16'2 5.0
2018-Jun-21 02:30N 34°41' E 135°13'0 0.0
2018-Jun-21 02:00N 34°41' E 135°13'0 0.5
2018-Jun-21 01:29N 34°41' E 135°13'5 9.7
2018-Jun-21 01:00N 34°40' E 135°19'5 9.8
2018-Jun-21 00:30N 34°38' E 135°24'1 0.9
2018-Jun-20 23:50N 34°38' E 135°25'0 0.0
2018-Jun-20 23:14N 34°38' E 135°25'0 0.0
2018-Jun-20 22:56N 34°38' E 135°25'1 1.5
2018-Jun-20 22:30N 34°37' E 135°25'2 0.1
2018-Jun-20 06:06N 34°39' E 135°27'3 1.3
2018-Jun-20 03:53N 34°36' E 135°25'0 0.0
2018-Jun-19 23:57N 34°36' E 135°25'1 1.9
2018-Jun-19 23:16N 34°37' E 135°26'0 0.0
2018-Jun-19 22:58N 34°37' E 135°26'0 0.1
2018-Jun-19 22:19N 34°37' E 135°26'3 0.1
2018-Jun-19 02:29N 34°35' E 135°23'3 1.2
2018-Jun-19 00:13N 34°38' E 135°25'2 1.3
2018-Jun-18 22:59N 34°38' E 135°26'3 2.7
2018-Jun-18 21:42N 34°35' E 135°23'2 7.2
2018-Jun-18 21:23N 34°37' E 135°25'1 0.1
2018-Jun-18 01:12N 34°36' E 135°25'3 0.1
2018-Jun-17 03:48N 34°39' E 135°26'3 9.1
2018-Jun-17 03:30N 34°40' E 135°23'5 9.1
2018-Jun-17 03:00N 34°41' E 135°18'5 9.0
2018-Jun-17 02:29N 34°41' E 135°12'0 0.5
2018-Jun-17 01:59N 34°41' E 135°12'1 1.4
2018-Jun-17 01:30N 34°40' E 135°12'3 5.7
2018-Jun-17 00:59N 34°39' E 135°15'5 9.4
2018-Jun-17 00:27N 34°39' E 135°21'5 0.1
2018-Jun-15 05:53N 34°39' E 135°27'3 8.0
2018-Jun-15 05:31N 34°36' E 135°24'1 0.3
2018-Jun-15 02:38N 34°37' E 135°24'2 0.7
2018-Jun-15 00:26N 34°38' E 135°25'5 2.1
2018-Jun-14 22:09N 34°35' E 135°20'3 1.9
2018-Jun-14 20:26N 34°36' E 135°23'0 0.0
2018-Jun-14 02:37N 34°37' E 135°24'1 0.6
2018-Jun-14 00:08N 34°38' E 135°25'4 2.1
2018-Jun-13 22:24N 34°34' E 135°26'3 6.6
2018-Jun-13 21:57N 34°37' E 135°24'4 9.2
2018-Jun-13 21:30N 34°40' E 135°20'5 9.0
2018-Jun-13 20:59N 34°41' E 135°14'2 4.2
2018-Jun-13 20:29N 34°41' E 135°12'0 0.6
2018-Jun-13 19:58N 34°41' E 135°12'3 6.0
2018-Jun-13 19:30N 34°41' E 135°15'5 9.5
2018-Jun-13 18:59N 34°40' E 135°21'5 0.4
2018-Jun-13 07:12N 34°38' E 135°27'7 2.9
2018-Jun-13 04:42N 34°35' E 135°19'0 0.1
2018-Jun-13 04:23N 34°35' E 135°19'0 0.1
2018-Jun-13 03:59N 34°35' E 135°19'5 1.6
2018-Jun-13 00:39N 34°37' E 135°25'1 3.6
2018-Jun-13 00:26N 34°38' E 135°25'0 0.0
2018-Jun-12 23:44N 34°38' E 135°25'0 0.0
2018-Jun-12 23:14N 34°38' E 135°25'0 0.2
2018-Jun-12 23:00N 34°38' E 135°25'4 7.7
2018-Jun-12 22:30N 34°38' E 135°20'4 8.5
2018-Jun-12 22:00N 34°39' E 135°15'0 0.1
2018-Jun-12 21:30N 34°39' E 135°15'0 0.1
2018-Jun-12 20:56N 34°39' E 135°15'4 8.4
2018-Jun-12 20:30N 34°39' E 135°19'4 8.9
2018-Jun-12 20:00N 34°39' E 135°25'  
Track history (hours):
 
Tides and Currents Weather Stations Pressure Air Temp Water Temp Dewpoint Dewpoint Depression Visibility Wind Speed Wind Dir Waves Ship Positions

Shinei Maru

Last reported at 2018-Jun-22 02:16 UTC. Time now 2018-Jun-22 05:32 UTC.
Position N 34°37' E 135°25'.

Length 41 m.

Type: Tanker. MMSI: 431008799.

Date/timePositionNaut miles runAvg speedWind from/ knotsBaromVisibWave heightAir tempDewpointWater temp
2018-Jun-22 02:16N 34°37' E 135°25'2 0.6
2018-Jun-21 22:13N 34°35' E 135°25'2 8.2
2018-Jun-21 21:59N 34°36' E 135°24'5 9.1
2018-Jun-21 21:26N 34°40' E 135°19'4 8.7
2018-Jun-21 21:00N 34°41' E 135°15'2 4.2
2018-Jun-21 20:25N 34°41' E 135°12'0 0.6
2018-Jun-21 20:00N 34°41' E 135°12'4 7.6
2018-Jun-21 19:29N 34°41' E 135°17'5 9.3
2018-Jun-21 18:58N 34°40' E 135°22'4 0.3
2018-Jun-21 06:03N 34°39' E 135°27'2 8.4
2018-Jun-21 05:52N 34°37' E 135°26'2 0.9
2018-Jun-21 03:56N 34°36' E 135°24'4 9.3
2018-Jun-21 03:30N 34°39' E 135°21'5 9.2
2018-Jun-21 03:00N 34°41' E 135°16'2 5.0
2018-Jun-21 02:30N 34°41' E 135°13'0 0.0
2018-Jun-21 02:00N 34°41' E 135°13'0 0.5
2018-Jun-21 01:29N 34°41' E 135°13'5 9.7
2018-Jun-21 01:00N 34°40' E 135°19'5 9.8
2018-Jun-21 00:30N 34°38' E 135°24'1 0.9
2018-Jun-20 23:50N 34°38' E 135°25'0 0.0
2018-Jun-20 23:14N 34°38' E 135°25'0 0.0
2018-Jun-20 22:56N 34°38' E 135°25'1 1.5
2018-Jun-20 22:30N 34°37' E 135°25'2 0.1
2018-Jun-20 06:06N 34°39' E 135°27'3 1.3
2018-Jun-20 03:53N 34°36' E 135°25'0 0.0
2018-Jun-19 23:57N 34°36' E 135°25'1 1.9
2018-Jun-19 23:16N 34°37' E 135°26'0 0.0
2018-Jun-19 22:58N 34°37' E 135°26'0 0.1
2018-Jun-19 22:19N 34°37' E 135°26'3 0.1
2018-Jun-19 02:29N 34°35' E 135°23'3 1.2
2018-Jun-19 00:13N 34°38' E 135°25'2 1.3
2018-Jun-18 22:59N 34°38' E 135°26'3 2.7
2018-Jun-18 21:42N 34°35' E 135°23'2 7.2
2018-Jun-18 21:23N 34°37' E 135°25'1 0.1
2018-Jun-18 01:12N 34°36' E 135°25'3 0.1
2018-Jun-17 03:48N 34°39' E 135°26'3 9.1
2018-Jun-17 03:30N 34°40' E 135°23'5 9.1
2018-Jun-17 03:00N 34°41' E 135°18'5 9.0
2018-Jun-17 02:29N 34°41' E 135°12'0 0.5
2018-Jun-17 01:59N 34°41' E 135°12'1 1.4
2018-Jun-17 01:30N 34°40' E 135°12'3 5.7
2018-Jun-17 00:59N 34°39' E 135°15'5 9.4
2018-Jun-17 00:27N 34°39' E 135°21'5 0.1
2018-Jun-15 05:53N 34°39' E 135°27'3 8.0
2018-Jun-15 05:31N 34°36' E 135°24'1 0.3
2018-Jun-15 02:38N 34°37' E 135°24'2 0.7
2018-Jun-15 00:26N 34°38' E 135°25'5 2.1
2018-Jun-14 22:09N 34°35' E 135°20'3 1.9
2018-Jun-14 20:26N 34°36' E 135°23'0 0.0
2018-Jun-14 02:37N 34°37' E 135°24'1 0.6
2018-Jun-14 00:08N 34°38' E 135°25'4 2.1
2018-Jun-13 22:24N 34°34' E 135°26'3 6.6
2018-Jun-13 21:57N 34°37' E 135°24'4 9.2
2018-Jun-13 21:30N 34°40' E 135°20'5 9.0
2018-Jun-13 20:59N 34°41' E 135°14'2 4.2
2018-Jun-13 20:29N 34°41' E 135°12'0 0.6
2018-Jun-13 19:58N 34°41' E 135°12'3 6.0
2018-Jun-13 19:30N 34°41' E 135°15'5 9.5
2018-Jun-13 18:59N 34°40' E 135°21'5 0.4
2018-Jun-13 07:12N 34°38' E 135°27'7 2.9
2018-Jun-13 04:42N 34°35' E 135°19'0 0.1
2018-Jun-13 04:23N 34°35' E 135°19'0 0.1
2018-Jun-13 03:59N 34°35' E 135°19'5 1.6
2018-Jun-13 00:39N 34°37' E 135°25'1 3.6
2018-Jun-13 00:26N 34°38' E 135°25'0 0.0
2018-Jun-12 23:44N 34°38' E 135°25'0 0.0
2018-Jun-12 23:14N 34°38' E 135°25'0 0.2
2018-Jun-12 23:00N 34°38' E 135°25'4 7.7
2018-Jun-12 22:30N 34°38' E 135°20'4 8.5
2018-Jun-12 22:00N 34°39' E 135°15'0 0.1
2018-Jun-12 21:30N 34°39' E 135°15'0 0.1
2018-Jun-12 20:56N 34°39' E 135°15'4 8.4
2018-Jun-12 20:30N 34°39' E 135°19'4 8.9
2018-Jun-12 20:00N 34°39' E 135°25'  

Dump ship's entire track history